AirNav   Air Wisconsin Up To $57,000 Bonus
 
 1155 users online  

11A Clayton Municipal Airport
Clayton, Alabama, USA

GOING TO CLAYTON?


FAA INFORMATION EFFECTIVE 17 JUNE 2021

Location

FAA Identifier: 11A
Lat/Long: 31-53-00.0000N 085-29-06.8000W
31-53.000000N 085-29.113333W
31.8833333,-85.4852222
(estimated)
Elevation: 434.9 ft. / 132.6 m (surveyed)
Variation: 04W (2015)
From city: 2 miles W of CLAYTON, AL
Time zone: UTC -5 (UTC -6 during Standard Time)
Zip code: 36016

Airport Operations

Airport use: Open to the public
Activation date: 02/1970
Control tower: no
ARTCC: JACKSONVILLE CENTER
FSS: ANNISTON FLIGHT SERVICE STATION
NOTAMs facility: ANB (NOTAM-D service available)
Attendance: UNATNDD
Wind indicator: lighted
Segmented circle: yes
Lights: ACTVT PAPI RWY 9 & 27; HIRL RWY 9/27 - CTAF.
Beacon: white-green (lighted land airport)
Operates sunset to sunrise.

Airport Communications

CTAF: 122.9
CAIRNS APPROACH: 121.1
CAIRNS DEPARTURE: 121.1
WX ASOS at EUF (19 nm E): 128.325 (334-687-5596)
  • APCH/DEP SVC PRVDD BY ATLANTA ARTCC ON FREQS 120.55/270.25 (MONTGOMERY RCAG) WHEN CAIRNS APCH/DEP CLSD.

Nearby radio navigation aids

VOR radial/distance  VOR name  Freq  Var
EUFr255/18.5EUFAULA VORTAC109.2002E
HEYr019/(31.7)HANCHEY VOR110.6003W
RRSr354/36.0WIREGRASS VORTAC111.6002E
LSFr225/36.8LAWSON VOR/DME111.4002W
TGEr163/37.3TUSKEGEE VOR/DME117.3002E
OZRr021/38.9CAIRNS VOR/DME111.2003W

 
NDB name  Hdg/Dist  Freq  Var  ID
HANCHEY019/31.622103WHYE .... -.-- .
BLOOD088/31.836504WTOI - --- ..
LOWE026/34.026903WLOR .-.. --- .-.
LAWSON226/34.033502WAWS .- .-- ...

Airport Services

Parking: tiedowns
Airframe service: NONE
Powerplant service: NONE
Bottled oxygen: NONE
Bulk oxygen: NONE

Runway Information

Runway 9/27

Dimensions: 5010 x 80 ft. / 1527 x 24 m
Surface: asphalt/aggregate friction seal coat, in excellent condition
Runway edge lights: high intensity
RUNWAY 9  RUNWAY 27
Latitude: 31-53.047310N31-52.951598N
Longitude: 085-29.594240W085-28.632727W
Elevation: 422.0 ft.434.3 ft.
Traffic pattern: leftleft
Runway heading: 101 magnetic, 097 true281 magnetic, 277 true
Displaced threshold: 278 ft.no
Markings: nonprecision, in good conditionnonprecision, in good condition
Visual slope indicator: 2-light PAPI on left (3.20 degrees glide path)2-light PAPI on left (3.75 degrees glide path)
Runway end identifier lights: yesyes
Touchdown point: yes, no lightsyes, no lights
Obstructions: 36 ft. tree, 436 ft. from runway, 181 ft. right of centerline, 6:1 slope to clear
APCH RATIO 19:1 FM DSPLCD THR.
13 ft. tree, 335 ft. from runway, 56 ft. right of centerline, 10:1 slope to clear
+9 FT TREE LCTD 165 FT FM RWY END, 98 FT RIGHT OF CNTLN.

Airport Ownership and Management from official FAA records

Ownership: Publicly-owned
Owner: CITY OF CLAYTON
PO BOX 385
CLAYTON, AL 36016
Phone 334-775-9176
Manager: JAMEY WILLIAMS
25 ROBERTSON AIRPORT RD.
CLAYTON, AL 36016
Phone 334-750-9031

Airport Operational Statistics

Aircraft based on the field: 1
Jet airplanes: 1
    
Aircraft operations: avg 30/week *
79% transient general aviation
21% local general aviation
* for 12-month period ending 07 February 2020

Additional Remarks

DEER AND BIRD ACTVTY ON AND INVOF RWY.
FOR CD CTC CAIRNS APCH AT 334-255-8402; FOR CD WHEN CAIRNS APCH CLSD CTC ATLANTA ARTCC AT 770-210-7692.

Instrument Procedures

NOTE: All procedures below are presented as PDF files. If you need a reader for these files, you should download the free Adobe Reader.

NOT FOR NAVIGATION. Please procure official charts for flight.
FAA instrument procedures published for use from 17 June 2021 at 0901Z to 15 July 2021 at 0900Z.

 
IAPs - Instrument Approach Procedures
RNAV (GPS) RWY 09   download (235KB)
RNAV (GPS) RWY 27   download (211KB)
NOTE: Special Take-Off Minimums/Departure Procedures apply   download (248KB)

Other nearby airports with instrument procedures:

KEUF - Weedon Field Airport (19 nm E)
KTOI - Troy Municipal Airport at N Kenneth Campbell Field (27 nm W)
71J - Ozark-Blackwell Field Airport (28 nm S)
0J6 - Headland Municipal Airport (32 nm S)
KHEY - Hanchey Army Heliport (Fort Rucker) (33 nm S)
 
Loc | Ops | Rwys | IFR | FBO | Links
Com | Nav | Svcs | Stats | Notes
Area around 11A (Clayton Municipal Airport)
 
Road maps at: MapQuest Bing Google
 
Aerial photo
WARNING: Photo may not be current or correct
Aerial photo of 11A (Clayton Municipal Airport)
Photo courtesy of Eddie Yell / Boyd Bros Transportation
Photo taken 22-Mar-2009

Do you have a better or more recent aerial photo of Clayton Municipal Airport that you would like to share? If so, please send us your photo.

 
Sectional chart

 
Airport distance calculator
Flying to Clayton Municipal Airport? Find the distance to fly.

From to 11A

Sunrise and sunset
Times for 21-Jun-2021
 Local
(UTC-5)
 Zulu
(UTC)
Morning civil twilight05:0910:09
Sunrise05:3810:38
Sunset19:5000:50
Evening civil twilight20:1801:18

Current date and time
Zulu (UTC)  21-Jun-2021 13:12:31
Local (UTC-5)  21-Jun-2021 08:12:31
 
METAR
KEUF 
19nm E 
211258Z AUTO 24005KT 10SM CLR 26/22 A3002 RMK AO2 SLP163 T02560222
KTOI 
27nm W 
211253Z AUTO 24006KT 10SM BKN085 26/22 A3003 RMK AO2 SLP164 T02610217
KHEY 
33nm S 
211258Z AUTO 00000KT 10SM SCT095 BKN130 24/22 A3003 RMK AO2 SLP168 T02380224
KDHN 
34nm S 
211253Z 24005KT 10SM SCT110 24/22 A3007 RMK AO2 SLP178 T02440222
KLOR 
35nm SW 
211258Z AUTO 24005KT 10SM SCT095 OVC140 24/22 A3003 RMK AO2 SLP150 T02430220
KLSF 
36nm NE 
211256Z AUTO 21003KT 10SM OVC009 24/21 A3000 RMK AO2 SLP162 T02430212 CHINO RWY15 $
KSXS 
36nm SW 
211258Z AUTO 27005KT 10SM FEW075 24/22 A3003 RMK AO2 SLP167 T02410215
TAF
KTOI 
27nm W 
211133Z 2112/2212 23005KT P6SM VCSH BKN045 FM211700 23014KT P6SM VCTS BKN060CB TEMPO 2118/2121 4SM TSRA BR OVC025CB FM212100 21014KT P6SM BKN060 PROB30 2121/2203 4SM TSRA BR OVC025CB FM220600 21008KT 6SM SHRA BR VCTS OVC029CB FM220900 21009KT 6SM SHRA BR VCTS OVC008CB
NOTAMs
Click for the latest NOTAMs
NOTAMs are issued by the DoD/FAA and will open in a separate window not controlled by AirNav.

 

 
 

Would you like to see your business listed on this page?

 If your business provides an interesting product or service to pilots, flight crews, aircraft, or users of the Clayton Municipal Airport, you should consider listing it here.  To start the listing process, click on the button below
 
Add a business
 

Other Pages about Clayton Municipal Airport

Update a link
 
Copyright © AirNav, LLC. All rights reserved. Privacy Policy  Contact